sensor_id;sensor_type;location;lat;lon;timestamp;P1;durP1;ratioP1;P2;durP2;ratioP2
55879;SDS011;41802;51.564;-1.838;2023-07-08T00:01:04;10.20;;;5.80;;
55879;SDS011;41802;51.564;-1.838;2023-07-08T00:03:33;9.98;;;5.28;;
55879;SDS011;41802;51.564;-1.838;2023-07-08T00:06:01;11.20;;;5.40;;
55879;SDS011;41802;51.564;-1.838;2023-07-08T00:08:29;10.43;;;5.40;;
55879;SDS011;41802;51.564;-1.838;2023-07-08T00:10:57;11.07;;;5.27;;
55879;SDS011;41802;51.564;-1.838;2023-07-08T00:13:26;10.60;;;5.10;;
55879;SDS011;41802;51.564;-1.838;2023-07-08T00:15:56;11.88;;;5.60;;
55879;SDS011;41802;51.564;-1.838;2023-07-08T00:18:23;11.90;;;5.60;;
55879;SDS011;41802;51.564;-1.838;2023-07-08T00:20:53;10.63;;;5.32;;
55879;SDS011;41802;51.564;-1.838;2023-07-08T00:23:20;10.30;;;5.30;;
55879;SDS011;41802;51.564;-1.838;2023-07-08T00:25:48;10.55;;;5.15;;
55879;SDS011;41802;51.564;-1.838;2023-07-08T00:28:17;14.50;;;5.57;;
55879;SDS011;41802;51.564;-1.838;2023-07-08T00:30:46;11.15;;;5.57;;
55879;SDS011;41802;51.564;-1.838;2023-07-08T00:33:14;15.38;;;6.47;;
55879;SDS011;41802;51.564;-1.838;2023-07-08T00:35:43;10.10;;;5.73;;
55879;SDS011;41802;51.564;-1.838;2023-07-08T00:38:14;14.45;;;5.25;;
55879;SDS011;41802;51.564;-1.838;2023-07-08T00:40:50;10.85;;;5.68;;
55879;SDS011;41802;51.564;-1.838;2023-07-08T00:43:19;11.98;;;5.82;;
55879;SDS011;41802;51.564;-1.838;2023-07-08T00:45:50;9.88;;;5.22;;
55879;SDS011;41802;51.564;-1.838;2023-07-08T00:48:33;11.40;;;5.60;;
55879;SDS011;41802;51.564;-1.838;2023-07-08T00:51:01;13.52;;;5.20;;
55879;SDS011;41802;51.564;-1.838;2023-07-08T00:53:31;11.70;;;5.88;;
55879;SDS011;41802;51.564;-1.838;2023-07-08T00:56:01;9.88;;;4.97;;
55879;SDS011;41802;51.564;-1.838;2023-07-08T00:58:32;13.57;;;6.05;;
55879;SDS011;41802;51.564;-1.838;2023-07-08T01:01:02;10.63;;;5.70;;
55879;SDS011;41802;51.564;-1.838;2023-07-08T01:03:31;11.43;;;5.57;;
55879;SDS011;41802;51.564;-1.838;2023-07-08T01:05:59;11.05;;;5.20;;
55879;SDS011;41802;51.564;-1.838;2023-07-08T01:08:27;11.85;;;5.72;;
55879;SDS011;41802;51.564;-1.838;2023-07-08T01:11:01;14.23;;;5.55;;
55879;SDS011;41802;51.564;-1.838;2023-07-08T01:13:30;12.50;;;5.53;;
55879;SDS011;41802;51.564;-1.838;2023-07-08T01:16:00;11.57;;;6.03;;
55879;SDS011;41802;51.564;-1.838;2023-07-08T01:18:28;12.30;;;5.60;;
55879;SDS011;41802;51.564;-1.838;2023-07-08T01:21:00;8.45;;;4.78;;
55879;SDS011;41802;51.564;-1.838;2023-07-08T01:23:30;10.85;;;5.25;;
55879;SDS011;41802;51.564;-1.838;2023-07-08T01:25:57;9.90;;;5.10;;
55879;SDS011;41802;51.564;-1.838;2023-07-08T01:28:27;9.65;;;4.80;;
55879;SDS011;41802;51.564;-1.838;2023-07-08T01:30:56;11.32;;;5.10;;
55879;SDS011;41802;51.564;-1.838;2023-07-08T01:33:26;10.93;;;4.15;;
55879;SDS011;41802;51.564;-1.838;2023-07-08T01:35:54;10.27;;;5.20;;
55879;SDS011;41802;51.564;-1.838;2023-07-08T01:38:23;9.23;;;4.80;;
55879;SDS011;41802;51.564;-1.838;2023-07-08T01:40:53;10.30;;;4.75;;
55879;SDS011;41802;51.564;-1.838;2023-07-08T01:43:22;10.40;;;5.28;;
55879;SDS011;41802;51.564;-1.838;2023-07-08T01:45:50;12.90;;;4.75;;
55879;SDS011;41802;51.564;-1.838;2023-07-08T01:48:19;10.40;;;4.80;;
55879;SDS011;41802;51.564;-1.838;2023-07-08T01:50:50;11.37;;;5.00;;
55879;SDS011;41802;51.564;-1.838;2023-07-08T01:53:21;9.45;;;4.93;;
55879;SDS011;41802;51.564;-1.838;2023-07-08T01:55:49;8.82;;;4.82;;
55879;SDS011;41802;51.564;-1.838;2023-07-08T01:58:18;10.55;;;4.28;;
55879;SDS011;41802;51.564;-1.838;2023-07-08T02:00:46;12.15;;;5.20;;
55879;SDS011;41802;51.564;-1.838;2023-07-08T02:03:14;9.97;;;4.93;;
55879;SDS011;41802;51.564;-1.838;2023-07-08T02:05:42;9.52;;;4.50;;
55879;SDS011;41802;51.564;-1.838;2023-07-08T02:08:10;9.18;;;4.80;;
55879;SDS011;41802;51.564;-1.838;2023-07-08T02:10:38;16.40;;;4.70;;
55879;SDS011;41802;51.564;-1.838;2023-07-08T02:13:06;9.25;;;4.60;;
55879;SDS011;41802;51.564;-1.838;2023-07-08T02:15:35;9.93;;;4.23;;
55879;SDS011;41802;51.564;-1.838;2023-07-08T02:18:03;9.93;;;4.25;;
55879;SDS011;41802;51.564;-1.838;2023-07-08T02:20:31;11.70;;;4.80;;
55879;SDS011;41802;51.564;-1.838;2023-07-08T02:22:59;11.60;;;4.65;;
55879;SDS011;41802;51.564;-1.838;2023-07-08T02:25:26;8.48;;;4.50;;
55879;SDS011;41802;51.564;-1.838;2023-07-08T02:27:55;8.67;;;4.20;;
55879;SDS011;41802;51.564;-1.838;2023-07-08T02:30:23;12.27;;;4.85;;
55879;SDS011;41802;51.564;-1.838;2023-07-08T02:32:52;10.93;;;5.70;;
55879;SDS011;41802;51.564;-1.838;2023-07-08T02:35:24;9.38;;;5.25;;
55879;SDS011;41802;51.564;-1.838;2023-07-08T02:37:53;10.13;;;4.80;;
55879;SDS011;41802;51.564;-1.838;2023-07-08T02:40:21;9.23;;;4.60;;
55879;SDS011;41802;51.564;-1.838;2023-07-08T02:42:49;10.05;;;4.30;;
55879;SDS011;41802;51.564;-1.838;2023-07-08T02:45:17;9.25;;;4.07;;
55879;SDS011;41802;51.564;-1.838;2023-07-08T02:47:45;8.75;;;4.30;;
55879;SDS011;41802;51.564;-1.838;2023-07-08T02:50:14;9.38;;;4.30;;
55879;SDS011;41802;51.564;-1.838;2023-07-08T02:52:46;11.17;;;4.63;;
55879;SDS011;41802;51.564;-1.838;2023-07-08T02:55:13;9.60;;;4.22;;
55879;SDS011;41802;51.564;-1.838;2023-07-08T02:57:41;9.57;;;4.45;;
55879;SDS011;41802;51.564;-1.838;2023-07-08T03:00:09;9.40;;;4.43;;
55879;SDS011;41802;51.564;-1.838;2023-07-08T03:02:37;9.23;;;4.65;;
55879;SDS011;41802;51.564;-1.838;2023-07-08T03:05:05;9.50;;;4.63;;
55879;SDS011;41802;51.564;-1.838;2023-07-08T03:07:34;8.95;;;4.50;;
55879;SDS011;41802;51.564;-1.838;2023-07-08T03:10:02;10.68;;;4.82;;
55879;SDS011;41802;51.564;-1.838;2023-07-08T03:12:31;10.30;;;4.95;;
55879;SDS011;41802;51.564;-1.838;2023-07-08T03:14:59;12.32;;;5.25;;
55879;SDS011;41802;51.564;-1.838;2023-07-08T03:17:27;9.20;;;4.60;;
55879;SDS011;41802;51.564;-1.838;2023-07-08T03:19:54;9.90;;;4.95;;
55879;SDS011;41802;51.564;-1.838;2023-07-08T03:22:22;12.65;;;5.53;;
55879;SDS011;41802;51.564;-1.838;2023-07-08T03:24:53;11.27;;;4.50;;
55879;SDS011;41802;51.564;-1.838;2023-07-08T03:27:33;11.07;;;5.05;;
55879;SDS011;41802;51.564;-1.838;2023-07-08T03:30:01;10.53;;;4.70;;
55879;SDS011;41802;51.564;-1.838;2023-07-08T03:32:30;9.95;;;4.78;;
55879;SDS011;41802;51.564;-1.838;2023-07-08T03:35:00;10.45;;;5.13;;
55879;SDS011;41802;51.564;-1.838;2023-07-08T03:37:29;10.95;;;4.43;;
55879;SDS011;41802;51.564;-1.838;2023-07-08T03:39:58;10.02;;;4.50;;
55879;SDS011;41802;51.564;-1.838;2023-07-08T03:42:26;8.87;;;4.30;;
55879;SDS011;41802;51.564;-1.838;2023-07-08T03:44:53;12.13;;;4.60;;
55879;SDS011;41802;51.564;-1.838;2023-07-08T03:47:21;9.85;;;4.53;;
55879;SDS011;41802;51.564;-1.838;2023-07-08T03:49:49;10.52;;;4.75;;
55879;SDS011;41802;51.564;-1.838;2023-07-08T03:52:17;11.40;;;5.25;;
55879;SDS011;41802;51.564;-1.838;2023-07-08T03:54:45;11.77;;;4.73;;
55879;SDS011;41802;51.564;-1.838;2023-07-08T03:57:14;12.35;;;5.00;;
55879;SDS011;41802;51.564;-1.838;2023-07-08T03:59:42;11.38;;;4.25;;
55879;SDS011;41802;51.564;-1.838;2023-07-08T04:02:13;11.77;;;4.75;;
55879;SDS011;41802;51.564;-1.838;2023-07-08T04:04:42;9.85;;;4.65;;
55879;SDS011;41802;51.564;-1.838;2023-07-08T04:07:09;12.20;;;4.80;;
55879;SDS011;41802;51.564;-1.838;2023-07-08T04:09:38;10.10;;;4.57;;
55879;SDS011;41802;51.564;-1.838;2023-07-08T04:12:07;9.70;;;4.60;;
55879;SDS011;41802;51.564;-1.838;2023-07-08T04:14:36;17.20;;;5.28;;
55879;SDS011;41802;51.564;-1.838;2023-07-08T04:17:09;11.70;;;5.00;;
55879;SDS011;41802;51.564;-1.838;2023-07-08T04:19:37;10.60;;;4.63;;
55879;SDS011;41802;51.564;-1.838;2023-07-08T04:22:05;12.43;;;4.38;;
55879;SDS011;41802;51.564;-1.838;2023-07-08T04:24:33;10.35;;;5.13;;
55879;SDS011;41802;51.564;-1.838;2023-07-08T04:27:01;10.48;;;4.70;;
55879;SDS011;41802;51.564;-1.838;2023-07-08T04:29:29;10.02;;;4.50;;
55879;SDS011;41802;51.564;-1.838;2023-07-08T04:31:58;8.57;;;4.67;;
55879;SDS011;41802;51.564;-1.838;2023-07-08T04:34:26;10.63;;;4.72;;
55879;SDS011;41802;51.564;-1.838;2023-07-08T04:36:55;8.55;;;4.60;;
55879;SDS011;41802;51.564;-1.838;2023-07-08T04:39:22;9.82;;;3.92;;
55879;SDS011;41802;51.564;-1.838;2023-07-08T04:41:50;11.50;;;4.30;;
55879;SDS011;41802;51.564;-1.838;2023-07-08T04:44:18;10.40;;;4.40;;
55879;SDS011;41802;51.564;-1.838;2023-07-08T04:46:46;11.68;;;4.15;;
55879;SDS011;41802;51.564;-1.838;2023-07-08T04:49:22;8.93;;;4.07;;
55879;SDS011;41802;51.564;-1.838;2023-07-08T04:51:58;9.48;;;4.60;;
55879;SDS011;41802;51.564;-1.838;2023-07-08T04:54:26;10.05;;;4.55;;
55879;SDS011;41802;51.564;-1.838;2023-07-08T04:56:54;11.50;;;4.47;;
55879;SDS011;41802;51.564;-1.838;2023-07-08T04:59:23;10.02;;;4.40;;
55879;SDS011;41802;51.564;-1.838;2023-07-08T05:01:51;8.20;;;3.85;;
55879;SDS011;41802;51.564;-1.838;2023-07-08T05:04:20;8.75;;;4.15;;
55879;SDS011;41802;51.564;-1.838;2023-07-08T05:06:50;13.00;;;4.47;;
55879;SDS011;41802;51.564;-1.838;2023-07-08T05:09:18;9.57;;;4.07;;
55879;SDS011;41802;51.564;-1.838;2023-07-08T05:11:48;11.10;;;4.45;;
55879;SDS011;41802;51.564;-1.838;2023-07-08T05:14:16;8.45;;;4.15;;
55879;SDS011;41802;51.564;-1.838;2023-07-08T05:16:44;11.25;;;4.32;;
55879;SDS011;41802;51.564;-1.838;2023-07-08T05:19:12;10.32;;;4.43;;
55879;SDS011;41802;51.564;-1.838;2023-07-08T05:21:39;12.23;;;4.40;;
55879;SDS011;41802;51.564;-1.838;2023-07-08T05:24:11;12.55;;;5.00;;
55879;SDS011;41802;51.564;-1.838;2023-07-08T05:26:39;12.00;;;4.65;;
55879;SDS011;41802;51.564;-1.838;2023-07-08T05:29:07;11.20;;;5.00;;
55879;SDS011;41802;51.564;-1.838;2023-07-08T05:31:34;10.50;;;4.47;;
55879;SDS011;41802;51.564;-1.838;2023-07-08T05:34:05;14.27;;;4.13;;
55879;SDS011;41802;51.564;-1.838;2023-07-08T05:36:33;16.00;;;5.53;;
55879;SDS011;41802;51.564;-1.838;2023-07-08T05:39:00;10.88;;;4.95;;
55879;SDS011;41802;51.564;-1.838;2023-07-08T05:41:29;10.60;;;4.93;;
55879;SDS011;41802;51.564;-1.838;2023-07-08T05:43:57;9.63;;;5.00;;
55879;SDS011;41802;51.564;-1.838;2023-07-08T05:46:25;9.50;;;4.63;;
55879;SDS011;41802;51.564;-1.838;2023-07-08T05:48:52;10.73;;;5.15;;
55879;SDS011;41802;51.564;-1.838;2023-07-08T05:51:20;14.18;;;4.90;;
55879;SDS011;41802;51.564;-1.838;2023-07-08T05:53:48;11.02;;;4.30;;
55879;SDS011;41802;51.564;-1.838;2023-07-08T05:56:16;9.38;;;4.85;;
55879;SDS011;41802;51.564;-1.838;2023-07-08T05:58:45;11.50;;;4.80;;
55879;SDS011;41802;51.564;-1.838;2023-07-08T06:01:13;12.02;;;4.85;;
55879;SDS011;41802;51.564;-1.838;2023-07-08T06:03:40;11.45;;;5.22;;
55879;SDS011;41802;51.564;-1.838;2023-07-08T06:06:08;10.32;;;4.40;;
55879;SDS011;41802;51.564;-1.838;2023-07-08T06:08:36;12.23;;;4.45;;
55879;SDS011;41802;51.564;-1.838;2023-07-08T06:11:03;9.67;;;4.83;;
55879;SDS011;41802;51.564;-1.838;2023-07-08T06:13:32;10.02;;;4.68;;
55879;SDS011;41802;51.564;-1.838;2023-07-08T06:16:01;10.90;;;4.78;;
55879;SDS011;41802;51.564;-1.838;2023-07-08T06:18:29;10.63;;;4.78;;
55879;SDS011;41802;51.564;-1.838;2023-07-08T06:20:57;12.88;;;5.13;;
55879;SDS011;41802;51.564;-1.838;2023-07-08T06:23:25;10.50;;;4.50;;
55879;SDS011;41802;51.564;-1.838;2023-07-08T06:25:53;11.32;;;4.65;;
55879;SDS011;41802;51.564;-1.838;2023-07-08T06:28:22;9.52;;;3.95;;
55879;SDS011;41802;51.564;-1.838;2023-07-08T06:30:49;9.30;;;4.28;;
55879;SDS011;41802;51.564;-1.838;2023-07-08T06:33:18;9.15;;;3.90;;
55879;SDS011;41802;51.564;-1.838;2023-07-08T06:35:47;9.93;;;3.70;;
55879;SDS011;41802;51.564;-1.838;2023-07-08T06:38:15;13.05;;;3.95;;
55879;SDS011;41802;51.564;-1.838;2023-07-08T06:40:42;10.43;;;3.88;;
55879;SDS011;41802;51.564;-1.838;2023-07-08T06:43:10;13.93;;;4.47;;
55879;SDS011;41802;51.564;-1.838;2023-07-08T06:45:38;10.27;;;4.20;;
55879;SDS011;41802;51.564;-1.838;2023-07-08T06:48:07;9.37;;;3.43;;
55879;SDS011;41802;51.564;-1.838;2023-07-08T06:50:37;13.35;;;4.43;;
55879;SDS011;41802;51.564;-1.838;2023-07-08T06:53:04;13.27;;;4.13;;
55879;SDS011;41802;51.564;-1.838;2023-07-08T06:55:34;11.07;;;4.25;;
55879;SDS011;41802;51.564;-1.838;2023-07-08T06:58:02;9.27;;;4.43;;
55879;SDS011;41802;51.564;-1.838;2023-07-08T07:00:29;10.53;;;4.20;;
55879;SDS011;41802;51.564;-1.838;2023-07-08T07:02:58;8.40;;;3.45;;
55879;SDS011;41802;51.564;-1.838;2023-07-08T07:05:26;11.05;;;3.40;;
55879;SDS011;41802;51.564;-1.838;2023-07-08T07:07:55;9.77;;;3.75;;
55879;SDS011;41802;51.564;-1.838;2023-07-08T07:10:23;9.43;;;3.92;;
55879;SDS011;41802;51.564;-1.838;2023-07-08T07:12:50;8.20;;;3.70;;
55879;SDS011;41802;51.564;-1.838;2023-07-08T07:15:18;9.63;;;4.18;;
55879;SDS011;41802;51.564;-1.838;2023-07-08T07:17:47;10.85;;;3.63;;
55879;SDS011;41802;51.564;-1.838;2023-07-08T07:20:15;10.85;;;4.25;;
55879;SDS011;41802;51.564;-1.838;2023-07-08T07:22:42;10.88;;;3.90;;
55879;SDS011;41802;51.564;-1.838;2023-07-08T07:25:12;8.63;;;3.30;;
55879;SDS011;41802;51.564;-1.838;2023-07-08T07:27:40;9.05;;;3.30;;
55879;SDS011;41802;51.564;-1.838;2023-07-08T07:30:08;10.23;;;3.97;;
55879;SDS011;41802;51.564;-1.838;2023-07-08T07:32:39;10.50;;;4.03;;
55879;SDS011;41802;51.564;-1.838;2023-07-08T07:35:07;6.70;;;3.40;;
55879;SDS011;41802;51.564;-1.838;2023-07-08T07:37:39;7.93;;;3.30;;
55879;SDS011;41802;51.564;-1.838;2023-07-08T07:40:07;11.57;;;3.95;;
55879;SDS011;41802;51.564;-1.838;2023-07-08T07:42:40;10.30;;;3.97;;
55879;SDS011;41802;51.564;-1.838;2023-07-08T07:45:08;7.53;;;3.42;;
55879;SDS011;41802;51.564;-1.838;2023-07-08T07:47:38;9.38;;;3.92;;
55879;SDS011;41802;51.564;-1.838;2023-07-08T07:50:07;8.20;;;3.50;;
55879;SDS011;41802;51.564;-1.838;2023-07-08T07:52:36;9.10;;;3.40;;
55879;SDS011;41802;51.564;-1.838;2023-07-08T07:55:04;7.05;;;3.22;;
55879;SDS011;41802;51.564;-1.838;2023-07-08T07:57:33;11.18;;;3.40;;
55879;SDS011;41802;51.564;-1.838;2023-07-08T08:00:02;8.25;;;3.28;;
55879;SDS011;41802;51.564;-1.838;2023-07-08T08:02:30;9.20;;;2.80;;
55879;SDS011;41802;51.564;-1.838;2023-07-08T08:04:58;8.57;;;3.40;;
55879;SDS011;41802;51.564;-1.838;2023-07-08T08:07:26;11.32;;;3.33;;
55879;SDS011;41802;51.564;-1.838;2023-07-08T08:09:53;9.65;;;3.03;;
55879;SDS011;41802;51.564;-1.838;2023-07-08T08:12:22;9.35;;;3.28;;
55879;SDS011;41802;51.564;-1.838;2023-07-08T08:14:51;11.20;;;3.20;;
55879;SDS011;41802;51.564;-1.838;2023-07-08T08:17:20;7.28;;;2.80;;
55879;SDS011;41802;51.564;-1.838;2023-07-08T08:19:48;9.40;;;3.10;;
55879;SDS011;41802;51.564;-1.838;2023-07-08T08:22:16;7.93;;;2.88;;
55879;SDS011;41802;51.564;-1.838;2023-07-08T08:24:44;9.38;;;3.15;;
55879;SDS011;41802;51.564;-1.838;2023-07-08T08:27:11;9.43;;;3.33;;
55879;SDS011;41802;51.564;-1.838;2023-07-08T08:29:39;7.75;;;2.75;;
55879;SDS011;41802;51.564;-1.838;2023-07-08T08:32:09;10.23;;;3.65;;
55879;SDS011;41802;51.564;-1.838;2023-07-08T08:34:38;12.90;;;3.83;;
55879;SDS011;41802;51.564;-1.838;2023-07-08T08:37:08;9.98;;;3.67;;
55879;SDS011;41802;51.564;-1.838;2023-07-08T08:39:35;9.03;;;3.20;;
55879;SDS011;41802;51.564;-1.838;2023-07-08T08:42:03;10.55;;;3.80;;
55879;SDS011;41802;51.564;-1.838;2023-07-08T08:44:31;8.88;;;2.78;;
55879;SDS011;41802;51.564;-1.838;2023-07-08T08:47:02;8.27;;;2.95;;
55879;SDS011;41802;51.564;-1.838;2023-07-08T08:49:39;7.60;;;3.33;;
55879;SDS011;41802;51.564;-1.838;2023-07-08T08:52:09;7.10;;;2.63;;
55879;SDS011;41802;51.564;-1.838;2023-07-08T08:54:36;6.82;;;2.05;;
55879;SDS011;41802;51.564;-1.838;2023-07-08T08:57:06;6.68;;;2.70;;
55879;SDS011;41802;51.564;-1.838;2023-07-08T08:59:42;9.95;;;3.15;;
55879;SDS011;41802;51.564;-1.838;2023-07-08T09:02:18;8.85;;;2.58;;
55879;SDS011;41802;51.564;-1.838;2023-07-08T09:04:53;10.47;;;3.10;;
55879;SDS011;41802;51.564;-1.838;2023-07-08T09:07:21;12.43;;;3.43;;
55879;SDS011;41802;51.564;-1.838;2023-07-08T09:10:00;12.05;;;3.78;;
55879;SDS011;41802;51.564;-1.838;2023-07-08T09:12:28;13.15;;;4.00;;
55879;SDS011;41802;51.564;-1.838;2023-07-08T09:14:57;12.10;;;3.38;;
55879;SDS011;41802;51.564;-1.838;2023-07-08T09:17:27;10.48;;;3.72;;
55879;SDS011;41802;51.564;-1.838;2023-07-08T09:20:01;11.67;;;3.93;;
55879;SDS011;41802;51.564;-1.838;2023-07-08T09:22:36;9.23;;;3.38;;
55879;SDS011;41802;51.564;-1.838;2023-07-08T09:25:15;11.82;;;3.38;;
55879;SDS011;41802;51.564;-1.838;2023-07-08T09:27:47;9.63;;;3.40;;
55879;SDS011;41802;51.564;-1.838;2023-07-08T09:30:16;9.18;;;3.67;;
55879;SDS011;41802;51.564;-1.838;2023-07-08T09:32:44;10.17;;;3.50;;
55879;SDS011;41802;51.564;-1.838;2023-07-08T09:35:18;11.88;;;3.67;;
55879;SDS011;41802;51.564;-1.838;2023-07-08T09:37:46;13.40;;;3.27;;
55879;SDS011;41802;51.564;-1.838;2023-07-08T09:40:16;11.20;;;3.13;;
55879;SDS011;41802;51.564;-1.838;2023-07-08T09:42:44;12.93;;;3.85;;
55879;SDS011;41802;51.564;-1.838;2023-07-08T09:45:16;13.15;;;3.83;;
55879;SDS011;41802;51.564;-1.838;2023-07-08T09:47:44;11.00;;;3.67;;
55879;SDS011;41802;51.564;-1.838;2023-07-08T09:50:16;12.03;;;3.43;;
55879;SDS011;41802;51.564;-1.838;2023-07-08T09:52:46;10.30;;;3.53;;
55879;SDS011;41802;51.564;-1.838;2023-07-08T09:55:15;11.82;;;3.50;;
55879;SDS011;41802;51.564;-1.838;2023-07-08T09:57:43;12.40;;;3.28;;
55879;SDS011;41802;51.564;-1.838;2023-07-08T10:00:12;8.40;;;3.10;;
55879;SDS011;41802;51.564;-1.838;2023-07-08T10:02:43;11.10;;;3.00;;
55879;SDS011;41802;51.564;-1.838;2023-07-08T10:05:13;12.23;;;3.63;;
55879;SDS011;41802;51.564;-1.838;2023-07-08T10:07:41;9.45;;;3.90;;
55879;SDS011;41802;51.564;-1.838;2023-07-08T10:10:12;10.65;;;3.40;;
55879;SDS011;41802;51.564;-1.838;2023-07-08T10:12:41;10.02;;;3.70;;
55879;SDS011;41802;51.564;-1.838;2023-07-08T10:15:15;13.07;;;3.70;;
55879;SDS011;41802;51.564;-1.838;2023-07-08T10:17:52;15.60;;;3.72;;
55879;SDS011;41802;51.564;-1.838;2023-07-08T10:20:21;11.13;;;4.23;;
55879;SDS011;41802;51.564;-1.838;2023-07-08T10:22:53;10.85;;;3.45;;
55879;SDS011;41802;51.564;-1.838;2023-07-08T10:25:31;10.68;;;4.32;;
55879;SDS011;41802;51.564;-1.838;2023-07-08T10:30:55;10.43;;;3.70;;
55879;SDS011;41802;51.564;-1.838;2023-07-08T10:33:31;12.30;;;3.73;;
55879;SDS011;41802;51.564;-1.838;2023-07-08T10:36:08;9.05;;;3.20;;
55879;SDS011;41802;51.564;-1.838;2023-07-08T10:38:43;10.88;;;3.75;;
55879;SDS011;41802;51.564;-1.838;2023-07-08T10:41:16;13.52;;;3.80;;
55879;SDS011;41802;51.564;-1.838;2023-07-08T10:43:52;12.57;;;3.95;;
55879;SDS011;41802;51.564;-1.838;2023-07-08T10:46:26;10.80;;;3.17;;
55879;SDS011;41802;51.564;-1.838;2023-07-08T10:49:06;8.70;;;3.67;;
55879;SDS011;41802;51.564;-1.838;2023-07-08T10:51:41;8.05;;;3.50;;
55879;SDS011;41802;51.564;-1.838;2023-07-08T10:54:20;10.27;;;3.83;;
55879;SDS011;41802;51.564;-1.838;2023-07-08T10:56:53;10.65;;;3.53;;
55879;SDS011;41802;51.564;-1.838;2023-07-08T10:59:28;9.93;;;3.27;;
55879;SDS011;41802;51.564;-1.838;2023-07-08T11:02:02;14.43;;;3.53;;
55879;SDS011;41802;51.564;-1.838;2023-07-08T11:04:34;9.60;;;3.60;;
55879;SDS011;41802;51.564;-1.838;2023-07-08T11:07:09;10.45;;;3.95;;
55879;SDS011;41802;51.564;-1.838;2023-07-08T11:09:42;11.02;;;3.58;;
55879;SDS011;41802;51.564;-1.838;2023-07-08T11:12:16;9.20;;;3.50;;
55879;SDS011;41802;51.564;-1.838;2023-07-08T11:14:46;9.98;;;3.25;;
55879;SDS011;41802;51.564;-1.838;2023-07-08T11:17:18;10.25;;;3.55;;
55879;SDS011;41802;51.564;-1.838;2023-07-08T11:19:50;10.02;;;2.97;;
55879;SDS011;41802;51.564;-1.838;2023-07-08T11:22:22;8.13;;;2.85;;
55879;SDS011;41802;51.564;-1.838;2023-07-08T11:24:50;11.73;;;3.77;;
55879;SDS011;41802;51.564;-1.838;2023-07-08T11:27:21;7.47;;;3.00;;
55879;SDS011;41802;51.564;-1.838;2023-07-08T11:29:55;10.25;;;3.30;;
55879;SDS011;41802;51.564;-1.838;2023-07-08T11:32:25;9.73;;;3.28;;
55879;SDS011;41802;51.564;-1.838;2023-07-08T11:34:53;7.72;;;3.13;;
55879;SDS011;41802;51.564;-1.838;2023-07-08T11:37:22;7.67;;;3.33;;
55879;SDS011;41802;51.564;-1.838;2023-07-08T11:39:53;8.55;;;3.13;;
55879;SDS011;41802;51.564;-1.838;2023-07-08T11:42:25;8.27;;;3.50;;
55879;SDS011;41802;51.564;-1.838;2023-07-08T11:44:57;7.72;;;2.80;;
55879;SDS011;41802;51.564;-1.838;2023-07-08T11:47:26;9.75;;;3.42;;
55879;SDS011;41802;51.564;-1.838;2023-07-08T11:50:00;9.10;;;3.27;;
55879;SDS011;41802;51.564;-1.838;2023-07-08T11:52:29;8.65;;;3.22;;
55879;SDS011;41802;51.564;-1.838;2023-07-08T11:54:59;9.25;;;3.42;;
55879;SDS011;41802;51.564;-1.838;2023-07-08T11:57:36;9.52;;;3.47;;
55879;SDS011;41802;51.564;-1.838;2023-07-08T12:00:16;11.18;;;3.30;;
55879;SDS011;41802;51.564;-1.838;2023-07-08T12:02:49;7.83;;;3.07;;
55879;SDS011;41802;51.564;-1.838;2023-07-08T12:05:17;10.75;;;3.92;;
55879;SDS011;41802;51.564;-1.838;2023-07-08T12:07:56;8.68;;;3.70;;
55879;SDS011;41802;51.564;-1.838;2023-07-08T12:10:26;9.98;;;3.28;;
55879;SDS011;41802;51.564;-1.838;2023-07-08T12:12:56;8.07;;;3.13;;
55879;SDS011;41802;51.564;-1.838;2023-07-08T12:15:25;8.37;;;3.47;;
55879;SDS011;41802;51.564;-1.838;2023-07-08T12:17:55;9.73;;;3.72;;
55879;SDS011;41802;51.564;-1.838;2023-07-08T12:20:24;9.00;;;3.75;;
55879;SDS011;41802;51.564;-1.838;2023-07-08T12:22:54;8.45;;;3.83;;
55879;SDS011;41802;51.564;-1.838;2023-07-08T12:25:25;8.15;;;3.35;;
55879;SDS011;41802;51.564;-1.838;2023-07-08T12:27:53;8.37;;;3.17;;
55879;SDS011;41802;51.564;-1.838;2023-07-08T12:30:23;11.48;;;4.40;;
55879;SDS011;41802;51.564;-1.838;2023-07-08T12:32:50;9.82;;;3.47;;
55879;SDS011;41802;51.564;-1.838;2023-07-08T12:35:22;9.38;;;4.00;;
55879;SDS011;41802;51.564;-1.838;2023-07-08T12:37:51;11.13;;;3.67;;
55879;SDS011;41802;51.564;-1.838;2023-07-08T12:40:20;9.10;;;2.93;;
55879;SDS011;41802;51.564;-1.838;2023-07-08T12:42:48;7.15;;;3.03;;
55879;SDS011;41802;51.564;-1.838;2023-07-08T12:45:17;7.93;;;3.75;;
55879;SDS011;41802;51.564;-1.838;2023-07-08T12:47:47;12.15;;;4.10;;
55879;SDS011;41802;51.564;-1.838;2023-07-08T12:50:19;9.00;;;4.07;;
55879;SDS011;41802;51.564;-1.838;2023-07-08T12:52:47;9.53;;;4.30;;
55879;SDS011;41802;51.564;-1.838;2023-07-08T12:55:15;9.60;;;4.30;;
55879;SDS011;41802;51.564;-1.838;2023-07-08T12:57:48;9.40;;;4.10;;
55879;SDS011;41802;51.564;-1.838;2023-07-08T13:00:19;14.85;;;6.38;;
55879;SDS011;41802;51.564;-1.838;2023-07-08T13:02:50;20.20;;;10.55;;
55879;SDS011;41802;51.564;-1.838;2023-07-08T13:05:23;14.00;;;5.20;;
55879;SDS011;41802;51.564;-1.838;2023-07-08T13:07:51;11.93;;;4.28;;
55879;SDS011;41802;51.564;-1.838;2023-07-08T13:10:20;11.75;;;4.40;;
55879;SDS011;41802;51.564;-1.838;2023-07-08T13:12:52;9.75;;;4.03;;
55879;SDS011;41802;51.564;-1.838;2023-07-08T13:15:24;15.45;;;4.25;;
55879;SDS011;41802;51.564;-1.838;2023-07-08T13:17:53;11.93;;;4.53;;
55879;SDS011;41802;51.564;-1.838;2023-07-08T13:20:22;10.67;;;4.40;;
55879;SDS011;41802;51.564;-1.838;2023-07-08T13:22:51;11.30;;;5.68;;
55879;SDS011;41802;51.564;-1.838;2023-07-08T13:25:19;12.52;;;4.95;;
55879;SDS011;41802;51.564;-1.838;2023-07-08T13:27:55;13.05;;;6.40;;
55879;SDS011;41802;51.564;-1.838;2023-07-08T13:30:23;13.10;;;5.10;;
55879;SDS011;41802;51.564;-1.838;2023-07-08T13:32:51;13.87;;;5.37;;
55879;SDS011;41802;51.564;-1.838;2023-07-08T13:35:38;12.98;;;5.00;;
55879;SDS011;41802;51.564;-1.838;2023-07-08T13:38:11;11.95;;;4.90;;
55879;SDS011;41802;51.564;-1.838;2023-07-08T13:40:40;13.25;;;5.28;;
55879;SDS011;41802;51.564;-1.838;2023-07-08T13:43:09;13.32;;;5.60;;
55879;SDS011;41802;51.564;-1.838;2023-07-08T13:45:37;13.40;;;4.83;;
55879;SDS011;41802;51.564;-1.838;2023-07-08T13:48:12;10.35;;;5.43;;
55879;SDS011;41802;51.564;-1.838;2023-07-08T13:50:43;13.88;;;5.65;;
55879;SDS011;41802;51.564;-1.838;2023-07-08T13:53:16;11.15;;;5.18;;
55879;SDS011;41802;51.564;-1.838;2023-07-08T13:55:44;13.52;;;5.30;;
55879;SDS011;41802;51.564;-1.838;2023-07-08T13:58:14;14.13;;;5.37;;
55879;SDS011;41802;51.564;-1.838;2023-07-08T14:00:42;11.18;;;5.40;;
55879;SDS011;41802;51.564;-1.838;2023-07-08T14:03:13;13.30;;;4.90;;
55879;SDS011;41802;51.564;-1.838;2023-07-08T14:05:44;14.85;;;5.65;;
55879;SDS011;41802;51.564;-1.838;2023-07-08T14:08:12;14.82;;;6.70;;
55879;SDS011;41802;51.564;-1.838;2023-07-08T14:10:40;11.37;;;6.20;;
55879;SDS011;41802;51.564;-1.838;2023-07-08T14:13:09;13.68;;;5.28;;
55879;SDS011;41802;51.564;-1.838;2023-07-08T14:15:37;15.55;;;6.32;;
55879;SDS011;41802;51.564;-1.838;2023-07-08T14:18:05;11.48;;;5.03;;
55879;SDS011;41802;51.564;-1.838;2023-07-08T14:20:34;9.93;;;4.28;;
55879;SDS011;41802;51.564;-1.838;2023-07-08T14:23:03;9.43;;;3.63;;
55879;SDS011;41802;51.564;-1.838;2023-07-08T14:25:30;10.50;;;3.95;;
55879;SDS011;41802;51.564;-1.838;2023-07-08T14:27:58;9.50;;;4.20;;
55879;SDS011;41802;51.564;-1.838;2023-07-08T14:30:26;10.73;;;4.32;;
55879;SDS011;41802;51.564;-1.838;2023-07-08T14:32:54;11.95;;;4.22;;
55879;SDS011;41802;51.564;-1.838;2023-07-08T14:35:23;8.87;;;3.83;;
55879;SDS011;41802;51.564;-1.838;2023-07-08T14:37:51;9.43;;;3.47;;
55879;SDS011;41802;51.564;-1.838;2023-07-08T14:40:22;10.65;;;3.60;;
55879;SDS011;41802;51.564;-1.838;2023-07-08T14:42:56;8.60;;;4.03;;